Terminal Aerodrome Forecast
Issued by NWS

Home | Current Version | Previous Version | Text Only | Print | Product List | Glossary On
Versions: 1 2 3 4 5 6 7 8 9 10 11 12 13 14
000
FTUS46 KLOX 282000 AAA
TAFSBA
TAF AMD
KSBA 282000Z 2820/0118 25012G18KT P6SM SCT040 SCT070
     FM282100 27013KT P6SM -SHRA SCT025 BKN040
     FM010200 33007KT 6SM -SHRA SCT025 BKN050
     FM010800 VRB03KT 6SM -SHRA SCT015 BKN035 BKN070 PROB30
      0108/0112 25020KT -TSRA OVC035CB=

USA.gov is the U.S. government's official web portal to all federal, state and local government web resources and services.